Terminal Aerodrome Forecast
Issued by NWS

Home | Current Version | Previous Version | Text Only | Print | Product List | Glossary On
Versions: 1 2 3 4 5 6 7 8 9 10 11 12
000
FTUS42 TJSJ 291100
TAFJBQ
TAF
TJBQ 291138Z 2912/3012 09008KT P6SM VCSH FEW030
     FM291300 08014G20KT P6SM VCSH SCT025 BKN035
     FM292300 11008KT P6SM VCSH SCT025 SCT035 SCT045
      AMD NOT SKED 3002/3011=

USA.gov is the U.S. government's official web portal to all federal, state and local government web resources and services.